Time;durP1;ratioP1;P1;durP2;ratioP2;P2;SDS_P1;SDS_P2;PMS_P1;PMS_P2;Temp;Humidity;BMP_temperature;BMP_pressure;BME280_temperature;BME280_humidity;BME280_pressure;Samples;Min_cycle;Max_cycle;Signal;HPM_P1;HPM_P2
2022/06/12 00:01:06;;;;;;;2.95;1.42;;;12.80;99.90;;;;;;5077073;28;20044;-68
2022/06/12 00:03:33;;;;;;;6.32;1.88;;;12.80;99.90;;;;;;5059376;28;20048;-70
2022/06/12 00:06:00;;;;;;;3.58;1.63;;;12.80;99.90;;;;;;5095747;28;20056;-69
2022/06/12 00:08:28;;;;;;;5.35;1.70;;;12.80;99.90;;;;;;5096129;28;20059;-69
2022/06/12 00:10:57;;;;;;;6.28;1.55;;;12.70;99.90;;;;;;5096412;28;20040;-68
2022/06/12 00:13:28;;;;;;;6.90;1.48;;;12.70;99.90;;;;;;5079535;28;20113;-69
2022/06/12 00:15:55;;;;;;;8.52;2.80;;;12.70;99.90;;;;;;5097248;28;20360;-68
2022/06/12 00:18:21;;;;;;;4.50;1.65;;;12.70;99.90;;;;;;5078751;28;20040;-69
2022/06/12 00:20:47;;;;;;;3.67;1.55;;;12.60;99.90;;;;;;5070716;28;20118;-69
2022/06/12 00:23:15;;;;;;;7.82;1.60;;;12.60;99.90;;;;;;5059507;28;20088;-68
2022/06/12 00:25:41;;;;;;;5.30;1.77;;;12.60;99.90;;;;;;5042133;28;20121;-68
2022/06/12 00:28:06;;;;;;;7.40;1.40;;;12.60;99.90;;;;;;5059258;28;20448;-68
2022/06/12 00:30:33;;;;;;;3.83;1.83;;;12.60;99.90;;;;;;5058782;28;20048;-69
2022/06/12 00:32:59;;;;;;;7.55;1.58;;;12.60;99.90;;;;;;5075119;28;20052;-68
2022/06/12 00:35:29;;;;;;;4.82;1.60;;;12.60;99.90;;;;;;5065151;28;20051;-68
2022/06/12 00:37:54;;;;;;;3.10;1.58;;;12.50;99.90;;;;;;5078832;28;20051;-69
2022/06/12 00:40:21;;;;;;;6.95;2.13;;;12.50;99.90;;;;;;5079276;28;20356;-68
2022/06/12 00:42:51;;;;;;;2.30;1.20;;;12.50;99.90;;;;;;5096467;28;20448;-68
2022/06/12 00:45:34;;;;;;;10.68;2.30;;;12.40;99.90;;;;;;5078674;28;20063;-69
2022/06/12 00:48:06;;;;;;;5.93;1.90;;;12.40;99.90;;;;;;5078454;28;20054;-69
2022/06/12 00:50:32;;;;;;;5.97;1.67;;;12.40;99.90;;;;;;5068901;28;20123;-69
2022/06/12 00:52:58;;;;;;;8.50;2.20;;;12.40;99.90;;;;;;5076008;28;20052;-68
2022/06/12 00:55:39;;;;;;;5.88;1.80;;;12.30;99.90;;;;;;5058350;28;20113;-69
2022/06/12 00:58:09;;;;;;;2.72;1.50;;;12.30;99.90;;;;;;5075782;28;20047;-68
2022/06/12 01:00:37;;;;;;;7.25;1.92;;;12.30;99.90;;;;;;5075657;28;20056;-68
2022/06/12 01:03:02;;;;;;;9.10;1.90;;;12.30;99.90;;;;;;5058250;28;20087;-69
2022/06/12 01:08:15;;;;;;;7.50;1.85;;;12.30;99.90;;;;;;5058106;28;20052;-69
2022/06/12 01:10:43;;;;;;;7.30;1.65;;;12.30;99.90;;;;;;5057859;28;20460;-69
2022/06/12 01:13:32;;;;;;;10.10;2.60;;;12.20;99.90;;;;;;5058549;28;20119;-68
2022/06/12 01:16:02;;;;;;;12.63;4.25;;;12.30;99.90;;;;;;5058334;28;20118;-69
2022/06/12 01:18:33;;;;;;;12.32;2.95;;;12.20;99.90;;;;;;5058250;28;20049;-69
2022/06/12 01:21:19;;;;;;;5.28;1.92;;;12.20;99.90;;;;;;5074682;28;20090;-69
2022/06/12 01:23:58;;;;;;;4.35;2.15;;;12.20;99.90;;;;;;5057654;28;20074;-69
2022/06/12 01:26:45;;;;;;;10.98;1.85;;;12.20;99.90;;;;;;5075430;28;20052;-69
2022/06/12 01:29:38;;;;;;;6.32;1.88;;;12.10;99.90;;;;;;5075205;28;20045;-69
2022/06/12 01:32:28;;;;;;;5.68;2.00;;;12.10;99.90;;;;;;5075265;28;20403;-69
2022/06/12 01:35:15;;;;;;;9.23;1.95;;;12.10;99.90;;;;;;5060922;28;20087;-68
2022/06/12 01:37:57;;;;;;;9.60;3.45;;;12.00;99.90;;;;;;5082694;28;20076;-68
2022/06/12 01:40:47;;;;;;;6.00;1.60;;;12.00;99.90;;;;;;5058089;28;20167;-69
2022/06/12 01:43:20;;;;;;;8.23;1.83;;;12.00;99.90;;;;;;5057989;28;20056;-68
2022/06/12 01:46:07;;;;;;;5.78;1.80;;;12.00;99.90;;;;;;5081322;28;20040;-69
2022/06/12 01:48:49;;;;;;;4.45;1.40;;;11.90;99.90;;;;;;5076140;28;20416;-68
2022/06/12 01:51:14;;;;;;;7.57;1.38;;;11.90;99.90;;;;;;5077618;28;20048;-69
2022/06/12 01:54:22;;;;;;;5.70;2.03;;;11.90;99.90;;;;;;5077315;28;20101;-69
2022/06/12 01:57:02;;;;;;;5.85;1.80;;;11.90;99.90;;;;;;5092443;28;20052;-69
2022/06/12 01:59:39;;;;;;;5.05;1.45;;;11.80;99.90;;;;;;5095203;28;20062;-69
2022/06/12 02:02:16;;;;;;;6.18;2.10;;;11.80;99.90;;;;;;5074456;28;20039;-68
2022/06/12 02:05:08;;;;;;;8.57;2.28;;;11.80;99.90;;;;;;5074939;28;20044;-69
2022/06/12 02:07:38;;;;;;;4.78;2.28;;;11.80;99.90;;;;;;5074846;28;20044;-69
2022/06/12 02:10:32;;;;;;;3.75;2.13;;;11.80;99.90;;;;;;5074894;28;20055;-69
2022/06/12 02:13:11;;;;;;;6.22;1.70;;;11.80;99.90;;;;;;5054930;28;20346;-69
2022/06/12 02:15:44;;;;;;;4.65;1.90;;;11.80;99.90;;;;;;5057554;28;20063;-68
2022/06/12 02:18:22;;;;;;;7.00;2.15;;;11.70;99.90;;;;;;5067888;28;20051;-69
2022/06/12 02:20:53;;;;;;;4.43;1.63;;;11.70;99.90;;;;;;5074954;28;20094;-69
2022/06/12 02:23:30;;;;;;;5.22;2.15;;;11.70;99.90;;;;;;5057152;28;20071;-69
2022/06/12 02:25:57;;;;;;;7.70;2.28;;;11.70;99.90;;;;;;5057222;28;20053;-69
2022/06/12 02:28:31;;;;;;;7.57;1.80;;;11.70;99.90;;;;;;5074676;28;20102;-69
2022/06/12 02:31:12;;;;;;;;;;;11.70;99.90;;;;;;5057742;28;20457;-69
2022/06/12 02:33:41;;;;;;;2.83;1.63;;;11.70;99.90;;;;;;5078692;28;19924;-69
2022/06/12 02:36:13;;;;;;;7.10;2.42;;;11.70;99.90;;;;;;5080894;28;20047;-68
2022/06/12 02:38:50;;;;;;;3.53;1.45;;;11.70;99.90;;;;;;5083198;28;20048;-69
2022/06/12 02:41:44;;;;;;;5.75;1.80;;;11.70;99.90;;;;;;5078328;28;20055;-68
2022/06/12 02:44:18;;;;;;;;;;;11.70;99.90;;;;;;5078905;28;20516;-69
2022/06/12 02:46:49;;;;;;;7.85;1.88;;;11.70;99.90;;;;;;5061068;28;20379;-69
2022/06/12 02:49:18;;;;;;;13.43;2.55;;;11.70;99.90;;;;;;5078413;28;20080;-69
2022/06/12 02:52:04;;;;;;;6.85;2.13;;;11.60;99.90;;;;;;5061894;28;20044;-69
2022/06/12 02:54:50;;;;;;;7.97;2.47;;;11.70;99.90;;;;;;5030094;28;20469;-69
2022/06/12 02:57:23;;;;;;;4.10;1.98;;;11.70;99.90;;;;;;5081101;28;20127;-69
2022/06/12 03:00:08;;;;;;;5.20;1.30;;;11.70;99.90;;;;;;5080532;28;20043;-68
2022/06/12 03:02:40;;;;;;;8.20;2.60;;;11.60;99.90;;;;;;5081035;28;20074;-69
2022/06/12 03:05:20;;;;;;;4.40;1.73;;;11.60;99.90;;;;;;5080887;28;20071;-68
2022/06/12 03:08:14;;;;;;;5.35;1.58;;;11.60;99.90;;;;;;5076268;28;20044;-69
2022/06/12 03:10:45;;;;;;;5.03;1.77;;;11.60;99.90;;;;;;5069121;28;20061;-69
2022/06/12 03:13:11;;;;;;;4.65;1.45;;;11.60;99.90;;;;;;5061289;28;20044;-68
2022/06/12 03:15:41;;;;;;;6.72;2.22;;;11.60;99.90;;;;;;5077295;28;20048;-68
2022/06/12 03:18:11;;;;;;;4.80;1.50;;;11.70;99.90;;;;;;5059779;28;20044;-69
2022/06/12 03:21:05;;;;;;;7.40;1.60;;;11.60;99.90;;;;;;5077692;28;20048;-69
2022/06/12 03:24:07;;;;;;;6.68;1.83;;;11.60;99.90;;;;;;5041854;28;20134;-68
2022/06/12 03:27:05;;;;;;;4.72;1.60;;;11.60;99.90;;;;;;5059650;28;20044;-69
2022/06/12 03:29:54;;;;;;;8.75;2.47;;;11.60;99.90;;;;;;5077738;28;20063;-69
2022/06/12 03:32:25;;;;;;;10.07;2.97;;;11.60;99.90;;;;;;5059580;28;20413;-69
2022/06/12 03:35:18;;;;;;;10.50;2.50;;;11.60;99.90;;;;;;5077861;28;20368;-68
2022/06/12 03:38:15;;;;;;;4.32;1.30;;;11.60;99.90;;;;;;5088424;28;20044;-69
2022/06/12 03:41:07;;;;;;;7.68;2.10;;;11.60;99.90;;;;;;5080231;28;20356;-69
2022/06/12 03:43:53;;;;;;;8.45;1.42;;;11.60;99.90;;;;;;5097489;28;20044;-69
2022/06/12 03:46:36;;;;;;;4.25;1.50;;;11.70;99.90;;;;;;5079026;28;20349;-68
2022/06/12 03:49:27;;;;;;;5.27;1.67;;;11.70;99.90;;;;;;5079445;28;20139;-69
2022/06/12 03:52:25;;;;;;;5.75;2.08;;;11.70;99.90;;;;;;5073185;28;20295;-69
2022/06/12 03:54:50;;;;;;;4.38;1.60;;;11.70;99.90;;;;;;5059244;28;20056;-69
2022/06/12 04:00:23;;;;;;;4.28;1.92;;;11.70;99.90;;;;;;5099563;28;20066;-69
2022/06/12 04:03:14;;;;;;;4.57;1.63;;;11.80;99.90;;;;;;5099982;28;20130;-69
2022/06/12 04:05:47;;;;;;;10.35;1.63;;;11.90;99.90;;;;;;5117701;28;20455;-69
2022/06/12 04:08:24;;;;;;;4.10;1.45;;;11.90;99.90;;;;;;5072137;28;20040;-69
2022/06/12 04:10:51;;;;;;;3.53;1.38;;;12.00;99.90;;;;;;5059368;28;20048;-69
2022/06/12 04:13:19;;;;;;;3.95;1.92;;;12.00;99.90;;;;;;5076840;28;20039;-69
2022/06/12 04:15:47;;;;;;;6.28;1.70;;;12.10;99.90;;;;;;5059025;28;20114;-68
2022/06/12 04:18:13;;;;;;;3.95;1.77;;;12.10;99.90;;;;;;5076640;28;20047;-69
2022/06/12 04:20:55;;;;;;;3.45;1.70;;;12.20;99.90;;;;;;5059879;28;20098;-69
2022/06/12 04:23:26;;;;;;;4.13;1.35;;;12.30;99.90;;;;;;5065632;28;20044;-69
2022/06/12 04:25:57;;;;;;;6.97;2.80;;;12.40;99.90;;;;;;5059520;28;20045;-69
2022/06/12 04:28:30;;;;;;;4.93;2.22;;;12.40;99.90;;;;;;5059231;28;20053;-69
2022/06/12 04:30:57;;;;;;;3.83;1.23;;;12.50;99.90;;;;;;5076442;28;20053;-69
2022/06/12 04:34:00;;;;;;;7.13;2.22;;;12.60;99.90;;;;;;5076332;28;20037;-69
2022/06/12 04:36:26;;;;;;;4.68;2.22;;;12.70;99.90;;;;;;5040279;28;20066;-69
2022/06/12 04:38:53;;;;;;;8.23;1.80;;;12.70;99.90;;;;;;5078407;28;20040;-69
2022/06/12 04:41:27;;;;;;;5.03;1.60;;;12.80;99.90;;;;;;5078573;28;20109;-69
2022/06/12 04:43:52;;;;;;;3.17;1.30;;;12.80;99.90;;;;;;5096812;28;20086;-68
2022/06/12 04:46:19;;;;;;;3.33;1.38;;;13.00;99.90;;;;;;5078685;28;20087;-68
2022/06/12 04:48:48;;;;;;;13.00;1.63;;;13.10;99.90;;;;;;5078685;28;20442;-69
2022/06/12 04:51:14;;;;;;;5.43;1.67;;;13.30;99.90;;;;;;5074477;28;20391;-69
2022/06/12 04:53:41;;;;;;;4.93;1.67;;;13.40;99.90;;;;;;5075837;28;20056;-69
2022/06/12 04:56:08;;;;;;;16.50;2.15;;;13.40;99.90;;;;;;5058428;28;20064;-69
2022/06/12 04:58:35;;;;;;;3.40;1.60;;;13.60;99.90;;;;;;5058160;28;20086;-69
2022/06/12 05:01:02;;;;;;;4.82;1.58;;;13.70;99.90;;;;;;5058529;28;20128;-69
2022/06/12 05:03:27;;;;;;;6.45;1.73;;;13.90;99.90;;;;;;5075873;28;20088;-69
2022/06/12 05:05:53;;;;;;;6.40;1.95;;;14.00;99.90;;;;;;5058668;28;20447;-69
2022/06/12 05:08:20;;;;;;;5.70;1.95;;;14.10;99.90;;;;;;5075573;28;20060;-69
2022/06/12 05:10:46;;;;;;;4.40;1.63;;;14.20;99.90;;;;;;5068675;28;20082;-69
2022/06/12 05:13:12;;;;;;;6.35;1.70;;;14.70;99.90;;;;;;5096211;28;20109;-69
2022/06/12 05:15:38;;;;;;;8.85;2.17;;;16.10;99.90;;;;;;5095746;28;20052;-69
2022/06/12 05:18:04;;;;;;;28.30;2.92;;;17.50;99.90;;;;;;5096152;28;20126;-69
2022/06/12 05:20:34;;;;;;;9.43;2.47;;;18.90;99.90;;;;;;5096782;28;20439;-69
2022/06/12 05:23:01;;;;;;;6.10;1.90;;;19.90;99.90;;;;;;5077752;28;20360;-69
2022/06/12 05:25:27;;;;;;;7.20;2.03;;;20.90;99.90;;;;;;5077563;28;20051;-69
2022/06/12 05:27:53;;;;;;;9.40;2.28;;;22.00;99.90;;;;;;5078519;28;20066;-69
2022/06/12 05:30:23;;;;;;;7.60;1.80;;;22.60;99.90;;;;;;5078095;28;20100;-70
2022/06/12 05:32:50;;;;;;;7.10;1.98;;;23.40;99.90;;;;;;5077675;28;20052;-69
2022/06/12 05:35:18;;;;;;;5.63;1.83;;;23.90;99.90;;;;;;5095672;28;20051;-70
2022/06/12 05:37:44;;;;;;;9.10;2.05;;;24.40;99.90;;;;;;5070545;28;20051;-69
2022/06/12 05:40:15;;;;;;;6.45;1.75;;;25.10;99.50;;;;;;5057011;28;20124;-69
2022/06/12 05:42:41;;;;;;;5.60;1.75;;;25.40;97.70;;;;;;5057953;28;20044;-68
2022/06/12 05:45:11;;;;;;;5.13;1.60;;;25.60;96.10;;;;;;5075044;28;20045;-69
2022/06/12 05:47:47;;;;;;;7.13;1.50;;;25.60;96.90;;;;;;5057326;28;20044;-69
2022/06/12 05:50:13;;;;;;;9.90;2.22;;;25.80;95.80;;;;;;5057417;28;20059;-69
2022/06/12 05:52:39;;;;;;;7.70;1.98;;;26.10;95.60;;;;;;5074551;28;20044;-69
2022/06/12 05:55:05;;;;;;;4.60;1.73;;;26.30;95.10;;;;;;5037819;28;20136;-69
2022/06/12 05:57:31;;;;;;;5.93;1.60;;;26.50;94.10;;;;;;5054839;28;20044;-70
2022/06/12 05:59:58;;;;;;;4.05;1.67;;;26.80;94.20;;;;;;5054778;28;20416;-66
2022/06/12 06:02:25;;;;;;;4.93;1.40;;;27.10;94.30;;;;;;5037411;28;20052;-68
2022/06/12 06:04:50;;;;;;;5.38;1.70;;;27.60;92.70;;;;;;5037597;28;20369;-67
2022/06/12 06:07:16;;;;;;;7.50;1.95;;;27.50;92.90;;;;;;5075009;28;20045;-68
2022/06/12 06:09:41;;;;;;;6.63;2.13;;;27.80;91.70;;;;;;5055808;28;20052;-68
2022/06/12 06:12:08;;;;;;;7.25;2.15;;;27.90;91.80;;;;;;5056553;28;20577;-68
2022/06/12 06:14:33;;;;;;;12.25;2.65;;;27.90;92.60;;;;;;5074627;28;20040;-68
2022/06/12 06:16:59;;;;;;;13.02;1.95;;;27.80;91.70;;;;;;5057198;28;20472;-66
2022/06/12 06:19:24;;;;;;;9.98;2.17;;;28.30;92.10;;;;;;5057086;28;20045;-67
2022/06/12 06:21:50;;;;;;;6.97;1.98;;;28.50;91.90;;;;;;5056689;28;20044;-67
2022/06/12 06:24:16;;;;;;;5.82;2.00;;;29.10;91.30;;;;;;5051189;28;20450;-69
2022/06/12 06:26:42;;;;;;;7.90;2.17;;;29.10;91.30;;;;;;5037420;28;20107;-68
2022/06/12 06:29:08;;;;;;;7.28;1.52;;;29.60;90.10;;;;;;5037604;28;20048;-68
2022/06/12 06:31:35;;;;;;;5.95;1.85;;;29.60;90.30;;;;;;5036914;28;20053;-67
2022/06/12 06:34:02;;;;;;;9.98;2.53;;;30.10;90.00;;;;;;5036773;28;20120;-68
2022/06/12 06:36:27;;;;;;;5.53;1.75;;;29.60;89.40;;;;;;5054136;28;20037;-68
2022/06/12 06:38:54;;;;;;;6.78;2.25;;;29.70;89.00;;;;;;5036940;28;20060;-68
2022/06/12 06:41:21;;;;;;;10.60;2.83;;;29.80;89.60;;;;;;5053501;28;20060;-67
2022/06/12 06:46:31;;;;;;;7.55;2.42;;;29.40;89.20;;;;;;5036183;28;20048;-68
2022/06/12 06:48:57;;;;;;;8.07;1.70;;;29.50;88.70;;;;;;5054475;28;20053;-68
2022/06/12 06:51:23;;;;;;;7.10;1.88;;;29.90;88.90;;;;;;5054222;28;20033;-67
2022/06/12 06:53:49;;;;;;;6.13;2.70;;;30.40;88.20;;;;;;5045804;28;20052;-67
2022/06/12 06:56:15;;;;;;;7.40;1.65;;;30.20;87.60;;;;;;5057164;28;20079;-67
2022/06/12 06:58:41;;;;;;;6.97;2.28;;;30.10;87.40;;;;;;5074400;28;20056;-67
2022/06/12 07:01:07;;;;;;;6.78;1.65;;;30.50;85.40;;;;;;5056862;28;20464;-67
2022/06/12 07:03:33;;;;;;;9.38;2.05;;;30.80;86.70;;;;;;5074277;28;20128;-68
2022/06/12 07:05:59;;;;;;;6.68;1.95;;;31.00;86.20;;;;;;5061580;28;20047;-67
2022/06/12 07:08:26;;;;;;;9.25;2.53;;;30.80;85.70;;;;;;5072099;28;20356;-67
2022/06/12 07:10:53;;;;;;;10.05;2.40;;;30.80;85.30;;;;;;5056741;28;20049;-67
2022/06/12 07:13:19;;;;;;;7.00;2.03;;;31.10;85.80;;;;;;5056965;28;20052;-68
2022/06/12 07:15:46;;;;;;;8.25;1.40;;;31.00;84.30;;;;;;5056266;28;20109;-67
2022/06/12 07:18:12;;;;;;;8.65;2.78;;;30.80;84.60;;;;;;5073832;28;20352;-68
2022/06/12 07:20:42;;;;;;;5.95;1.65;;;30.90;84.20;;;;;;5077470;28;20472;-67
2022/06/12 07:23:08;;;;;;;6.53;2.20;;;30.90;83.60;;;;;;5077497;28;20044;-67
2022/06/12 07:25:39;;;;;;;9.65;2.17;;;30.70;84.70;;;;;;5077665;28;20032;-67
2022/06/12 07:28:05;;;;;;;8.35;1.73;;;30.60;83.00;;;;;;5060048;28;20040;-68
2022/06/12 07:30:31;;;;;;;11.30;2.40;;;30.90;83.90;;;;;;5060454;28;20041;-68
2022/06/12 07:32:56;;;;;;;7.50;1.90;;;30.90;84.20;;;;;;5060202;28;20041;-67
2022/06/12 07:35:22;;;;;;;8.07;1.73;;;31.00;82.40;;;;;;5077449;28;20153;-69
2022/06/12 07:37:49;;;;;;;8.10;2.00;;;30.90;82.80;;;;;;5063623;28;20047;-67
2022/06/12 07:40:23;;;;;;;8.05;2.00;;;30.70;84.00;;;;;;5079799;28;20099;-68
2022/06/12 07:42:49;;;;;;;11.20;2.35;;;30.50;83.40;;;;;;5079756;28;20048;-68
2022/06/12 07:45:18;;;;;;;6.75;2.30;;;30.60;83.70;;;;;;5079419;28;20040;-67
2022/06/12 07:47:43;;;;;;;8.65;2.60;;;30.90;83.80;;;;;;5080434;28;20043;-67
2022/06/12 07:50:10;;;;;;;10.00;2.53;;;31.00;83.20;;;;;;5080016;28;20131;-68
2022/06/12 07:52:39;;;;;;;5.50;1.38;;;31.00;82.60;;;;;;5077887;28;20453;-68
2022/06/12 07:55:06;;;;;;;10.15;2.00;;;31.00;83.00;;;;;;5059369;28;20064;-67
2022/06/12 07:57:32;;;;;;;12.40;2.58;;;31.30;81.60;;;;;;5076099;28;20057;-67
2022/06/12 07:59:58;;;;;;;7.00;1.73;;;31.30;81.20;;;;;;5059083;28;20059;-67
2022/06/12 08:02:23;;;;;;;8.00;1.92;;;31.30;82.70;;;;;;5090596;28;20449;-67
2022/06/12 08:04:49;;;;;;;5.07;1.30;;;31.20;82.80;;;;;;5079097;28;20040;-67
2022/06/12 08:07:15;;;;;;;6.72;1.98;;;31.10;79.00;;;;;;5079482;28;20036;-68
2022/06/12 08:09:40;;;;;;;8.25;1.60;;;30.40;82.50;;;;;;5079557;28;20043;-69
2022/06/12 08:12:06;;;;;;;6.88;1.98;;;30.20;82.60;;;;;;5079670;28;20056;-68
2022/06/12 08:14:32;;;;;;;8.68;1.80;;;30.50;83.60;;;;;;5080069;28;20052;-67
2022/06/12 08:16:58;;;;;;;6.53;1.65;;;30.70;81.90;;;;;;5085061;28;20410;-67
2022/06/12 08:22:08;;;;;;;13.63;2.92;;;30.50;81.00;;;;;;5059189;28;20080;-67
2022/06/12 08:24:35;;;;;;;4.53;1.58;;;30.80;80.70;;;;;;5076583;28;20041;-68
2022/06/12 08:27:01;;;;;;;8.85;1.92;;;30.50;81.90;;;;;;5075756;28;20063;-68
2022/06/12 08:29:27;;;;;;;6.32;1.80;;;30.40;80.90;;;;;;5059242;28;20449;-67
2022/06/12 08:32:05;;;;;;;6.50;1.52;;;30.70;82.50;;;;;;5087252;28;20036;-67
2022/06/12 08:34:38;;;;;;;4.95;1.70;;;30.90;81.10;;;;;;5059699;28;20052;-68
2022/06/12 08:37:10;;;;;;;4.30;1.10;;;30.60;80.50;;;;;;5058501;28;20461;-67
2022/06/12 08:39:35;;;;;;;8.38;1.92;;;30.30;79.90;;;;;;5058474;28;20120;-67
2022/06/12 08:42:14;;;;;;;7.03;1.85;;;30.10;81.00;;;;;;5059049;28;20202;-68
2022/06/12 08:44:51;;;;;;;7.78;1.42;;;28.80;81.60;;;;;;5076501;28;20048;-67
2022/06/12 08:47:55;;;;;;;5.50;2.05;;;28.00;83.60;;;;;;5076088;28;20036;-67
2022/06/12 08:50:34;;;;;;;6.57;1.38;;;27.60;84.90;;;;;;5028653;28;20080;-67
2022/06/12 08:53:15;;;;;;;4.40;1.77;;;28.30;84.60;;;;;;5058346;28;20040;-67
2022/06/12 08:55:58;;;;;;;5.32;1.42;;;28.80;84.20;;;;;;5058529;28;20052;-68
2022/06/12 08:58:39;;;;;;;5.28;1.13;;;28.70;84.20;;;;;;5075454;28;20487;-67
2022/06/12 09:01:05;;;;;;;9.03;2.17;;;29.40;83.80;;;;;;5058207;28;20138;-69
2022/06/12 09:03:38;;;;;;;6.10;1.70;;;29.90;84.50;;;;;;5058036;28;20818;-68
2022/06/12 09:06:28;;;;;;;4.63;1.20;;;30.10;82.40;;;;;;5058441;28;20092;-69
2022/06/12 09:09:16;;;;;;;6.05;1.48;;;30.10;82.20;;;;;;5058510;28;20071;-67
2022/06/12 09:12:15;;;;;;;10.70;1.85;;;29.70;83.90;;;;;;5058404;28;20048;-67
2022/06/12 09:15:26;;;;;;;4.53;1.40;;;29.30;82.60;;;;;;5075639;28;20473;-68
2022/06/12 09:18:16;;;;;;;5.00;1.55;;;28.80;84.80;;;;;;5044735;28;20060;-68
2022/06/12 09:21:03;;;;;;;7.03;1.98;;;28.40;83.90;;;;;;5057582;28;20483;-68
2022/06/12 09:23:49;;;;;;;5.55;1.55;;;27.80;86.70;;;;;;5073341;28;20041;-68
2022/06/12 09:26:36;;;;;;;7.60;1.88;;;28.10;87.80;;;;;;5090418;28;20467;-69
2022/06/12 09:29:10;;;;;;;5.63;1.30;;;28.00;85.60;;;;;;5106685;28;20036;-69
2022/06/12 09:31:49;;;;;;;79.22;4.63;;;27.60;84.70;;;;;;5073326;28;20048;-69
2022/06/12 09:34:33;;;;;;;6.65;1.40;;;27.50;85.30;;;;;;5075457;28;20044;-69
2022/06/12 09:40:19;;;;;;;3.47;1.40;;;28.20;82.50;;;;;;5038633;28;20048;-68
2022/06/12 09:43:08;;;;;;;14.15;2.75;;;28.00;80.60;;;;;;5087622;28;20040;-68
2022/06/12 09:46:14;;;;;;;4.22;1.10;;;28.30;80.90;;;;;;5066536;28;20140;-67
2022/06/12 09:49:14;;;;;;;4.70;1.90;;;28.50;84.00;;;;;;5041576;28;20037;-68
2022/06/12 09:51:55;;;;;;;4.75;1.80;;;28.20;81.30;;;;;;5075198;28;20040;-67
2022/06/12 09:54:23;;;;;;;3.72;1.33;;;27.70;80.30;;;;;;5056961;28;20079;-68
2022/06/12 09:57:01;;;;;;;4.38;1.23;;;27.20;79.60;;;;;;5057300;28;20095;-68
2022/06/12 09:59:43;;;;;;;5.10;1.58;;;26.70;81.60;;;;;;5059270;28;20132;-68
2022/06/12 10:02:27;;;;;;;8.73;2.17;;;26.00;84.00;;;;;;5057117;28;20048;-68
2022/06/12 10:05:09;;;;;;;6.85;1.48;;;25.90;84.10;;;;;;5057760;28;20357;-69
2022/06/12 10:07:54;;;;;;;6.57;2.03;;;25.60;84.10;;;;;;5057014;28;20048;-67
2022/06/12 10:10:30;;;;;;;9.40;2.17;;;25.20;84.50;;;;;;5057083;28;20048;-68
2022/06/12 10:13:02;;;;;;;5.88;1.48;;;25.20;86.10;;;;;;5040226;28;20040;-68
2022/06/12 10:15:35;;;;;;;3.97;1.23;;;25.40;85.40;;;;;;5057599;28;20056;-67
2022/06/12 10:18:29;;;;;;;3.22;1.10;;;25.70;84.80;;;;;;5074098;28;20069;-68
2022/06/12 10:21:04;;;;;;;2.75;1.00;;;26.00;84.30;;;;;;5064065;28;20143;-68
2022/06/12 10:23:30;;;;;;;3.03;1.10;;;26.00;84.20;;;;;;5043497;28;20075;-71
2022/06/12 10:25:58;;;;;;;6.85;1.33;;;26.00;80.10;;;;;;5088338;28;20499;-69
2022/06/12 10:28:32;;;;;;;3.85;1.17;;;26.20;81.80;;;;;;5094941;28;20040;-67
2022/06/12 10:31:10;;;;;;;1.90;0.93;;;26.40;83.70;;;;;;5095039;28;20059;-70
2022/06/12 10:33:42;;;;;;;3.08;0.90;;;26.40;77.50;;;;;;5077216;28;20165;-69
2022/06/12 10:36:19;;;;;;;3.63;0.90;;;26.30;77.90;;;;;;5060627;28;20075;-67
2022/06/12 10:38:45;;;;;;;3.83;1.30;;;26.50;80.30;;;;;;5077052;28;20040;-68
2022/06/12 10:41:23;;;;;;;2.38;1.10;;;26.70;81.70;;;;;;5077139;28;20049;-68
2022/06/12 10:43:51;;;;;;;5.68;1.50;;;26.20;78.70;;;;;;5085552;28;20098;-69
2022/06/12 10:46:31;;;;;;;5.20;0.93;;;26.10;80.40;;;;;;5085265;28;20107;-69
2022/06/12 10:49:26;;;;;;;2.80;1.10;;;26.30;78.00;;;;;;5056938;28;20044;-68
2022/06/12 10:52:04;;;;;;;2.58;1.15;;;26.30;80.30;;;;;;5057107;28;20052;-68
2022/06/12 10:54:30;;;;;;;4.65;1.38;;;26.20;78.60;;;;;;5059035;28;20128;-69
2022/06/12 10:57:35;;;;;;;7.82;2.03;;;26.20;77.90;;;;;;5083541;28;20123;-70
2022/06/12 11:00:19;;;;;;;3.38;1.15;;;26.50;77.10;;;;;;5060258;28;20064;-70
2022/06/12 11:03:01;;;;;;;4.13;1.00;;;26.60;77.20;;;;;;5081649;28;20040;-71
2022/06/12 11:05:54;;;;;;;4.20;1.20;;;26.60;78.00;;;;;;5064397;28;20361;-71
2022/06/12 11:08:57;;;;;;;2.22;0.93;;;26.70;78.80;;;;;;5078493;28;20048;-70
2022/06/12 11:11:29;;;;;;;;;;;26.60;77.40;;;;;;5014516;28;20059;-69
2022/06/12 11:14:01;;;;;;;4.13;1.00;;;26.60;75.40;;;;;;5060631;28;19920;-69
2022/06/12 11:16:40;;;;;;;4.45;1.33;;;26.50;75.80;;;;;;5060678;28;20079;-70
2022/06/12 11:19:29;;;;;;;2.85;1.13;;;26.50;76.60;;;;;;5077965;28;20087;-69
2022/06/12 11:22:19;;;;;;;3.08;1.00;;;26.60;77.00;;;;;;5089474;28;20360;-69
2022/06/12 11:24:51;;;;;;;7.68;1.50;;;26.50;75.60;;;;;;5077760;28;20082;-69
2022/06/12 11:27:51;;;;;;;3.40;0.90;;;26.40;76.00;;;;;;5077577;28;20047;-69
2022/06/12 11:30:35;;;;;;;2.35;1.00;;;26.30;74.00;;;;;;5067388;28;20479;-69
2022/06/12 11:33:19;;;;;;;4.18;1.13;;;26.10;72.20;;;;;;5088038;28;20066;-68
2022/06/12 11:35:57;;;;;;;34.35;1.85;;;26.10;74.40;;;;;;5082328;28;20388;-68
2022/06/12 11:38:59;;;;;;;2.53;0.70;;;26.10;74.30;;;;;;5092598;28;20526;-71
2022/06/12 11:41:51;;;;;;;2.42;1.13;;;26.00;75.70;;;;;;5100239;28;20040;-69
2022/06/12 11:44:34;;;;;;;4.07;1.10;;;25.80;75.20;;;;;;5100323;28;20477;-68
2022/06/12 11:47:15;;;;;;;3.72;0.88;;;25.90;76.40;;;;;;5118202;28;20368;-71
2022/06/12 11:49:58;;;;;;;2.65;0.93;;;26.30;78.50;;;;;;5094051;28;20058;-69
2022/06/12 11:52:49;;;;;;;4.78;1.58;;;26.40;76.00;;;;;;5059684;28;20048;-68
2022/06/12 11:55:56;;;;;;;7.72;1.45;;;26.60;78.00;;;;;;5059515;28;20044;-69
2022/06/12 11:58:22;;;;;;;4.70;1.48;;;26.60;76.80;;;;;;5076805;28;20449;-69
2022/06/12 12:01:28;;;;;;;6.13;1.45;;;26.30;75.60;;;;;;5059877;28;20059;-67
2022/06/12 12:04:06;;;;;;;6.38;1.05;;;25.90;77.20;;;;;;5036002;28;20090;-68
2022/06/12 12:06:49;;;;;;;2.28;1.00;;;25.80;78.40;;;;;;5095566;28;20123;-69
2022/06/12 12:09:27;;;;;;;3.00;1.20;;;26.10;77.50;;;;;;5079326;28;20044;-69
2022/06/12 12:12:00;;;;;;;4.97;1.17;;;26.40;77.80;;;;;;5079278;28;20044;-68
2022/06/12 12:14:31;;;;;;;4.40;1.17;;;26.60;77.90;;;;;;5097058;28;20048;-68
2022/06/12 12:17:03;;;;;;;6.50;1.20;;;26.40;77.90;;;;;;5097210;28;20048;-68
2022/06/12 12:19:49;;;;;;;5.78;1.33;;;25.90;77.20;;;;;;5096542;28;20098;-69
2022/06/12 12:22:22;;;;;;;4.13;1.15;;;25.70;75.20;;;;;;5079173;28;20144;-70
2022/06/12 12:24:49;;;;;;;;;;;25.40;76.00;;;;;;5079786;28;20140;-69
2022/06/12 12:27:22;;;;;;;5.05;1.17;;;25.70;77.20;;;;;;5079713;28;19967;-69
2022/06/12 12:29:48;;;;;;;;;;;25.40;75.70;;;;;;5079838;28;20052;-69
2022/06/12 12:32:14;;;;;;;3.97;1.05;;;25.20;76.50;;;;;;5096936;28;19920;-68
2022/06/12 12:34:41;;;;;;;5.63;1.58;;;25.00;77.20;;;;;;5075003;28;20040;-68
2022/06/12 12:42:43;;;;;;;3.03;0.93;;;24.40;79.10;;;;;;5058863;28;20052;-70
2022/06/12 12:45:24;;;;;;;3.15;1.13;;;24.50;78.00;;;;;;5076004;28;20040;-69
2022/06/12 12:48:06;;;;;;;4.05;1.15;;;24.70;77.30;;;;;;5076062;28;20127;-69
2022/06/12 12:50:48;;;;;;;2.57;0.83;;;25.20;77.90;;;;;;5074058;28;20520;-70
2022/06/12 12:53:29;;;;;;;5.88;1.75;;;25.10;77.20;;;;;;5062012;28;20063;-70
2022/06/12 12:56:09;;;;;;;3.17;1.17;;;25.20;78.60;;;;;;5078383;28;20055;-70
2022/06/12 12:59:00;;;;;;;4.00;1.08;;;25.40;77.50;;;;;;5078488;28;20047;-69
2022/06/12 13:01:40;;;;;;;3.75;0.80;;;25.10;76.10;;;;;;5078443;28;20101;-69
2022/06/12 13:04:23;;;;;;;2.40;1.05;;;25.00;76.80;;;;;;5074403;28;20055;-70
2022/06/12 13:07:03;;;;;;;3.77;1.07;;;24.80;76.90;;;;;;5057932;28;20051;-70
2022/06/12 13:09:43;;;;;;;4.50;1.30;;;24.80;76.40;;;;;;5058397;28;20330;-69
2022/06/12 13:12:30;;;;;;;2.88;0.80;;;24.30;77.00;;;;;;5057791;28;20036;-70
2022/06/12 13:15:22;;;;;;;3.22;0.90;;;24.30;78.10;;;;;;5058370;28;20052;-69
2022/06/12 13:18:12;;;;;;;7.57;1.38;;;24.30;78.20;;;;;;5057800;28;20360;-71
2022/06/12 13:21:04;;;;;;;4.75;1.25;;;24.40;78.50;;;;;;5075421;28;20064;-71
2022/06/12 13:23:44;;;;;;;2.67;0.85;;;24.30;77.60;;;;;;5077933;28;20393;-70
2022/06/12 13:26:14;;;;;;;3.45;0.80;;;24.50;76.50;;;;;;5077643;28;20050;-70
2022/06/12 13:28:40;;;;;;;2.63;0.75;;;24.40;77.20;;;;;;5095835;28;20055;-70
2022/06/12 13:31:18;;;;;;;1.42;0.82;;;24.30;76.60;;;;;;5095083;28;20365;-71
2022/06/12 13:33:54;;;;;;;2.75;1.00;;;24.10;76.40;;;;;;5090994;28;20045;-71
2022/06/12 13:36:26;;;;;;;2.95;1.10;;;24.10;77.20;;;;;;5057471;28;20044;-70
2022/06/12 13:38:54;;;;;;;4.90;1.58;;;24.30;77.40;;;;;;5075190;28;20040;-70
2022/06/12 13:41:26;;;;;;;3.33;0.90;;;24.10;76.10;;;;;;5058098;28;20044;-71
2022/06/12 13:43:52;;;;;;;2.65;0.85;;;24.50;77.50;;;;;;5075090;28;20127;-70
2022/06/12 13:46:24;;;;;;;4.63;1.23;;;24.60;78.80;;;;;;5075040;28;20080;-70
2022/06/12 13:48:50;;;;;;;4.47;0.88;;;24.90;79.20;;;;;;5057818;28;20076;-71